sensor_id;sensor_type;location;lat;lon;timestamp;P1;durP1;ratioP1;P2;durP2;ratioP2
38715;SDS011;24833;49.324;8.694;2023-06-14T00:01:19;3.15;;;2.53;;
38715;SDS011;24833;49.324;8.694;2023-06-14T00:03:48;6.10;;;2.90;;
38715;SDS011;24833;49.324;8.694;2023-06-14T00:06:15;5.65;;;2.67;;
38715;SDS011;24833;49.324;8.694;2023-06-14T00:08:43;2.75;;;2.47;;
38715;SDS011;24833;49.324;8.694;2023-06-14T00:11:10;3.33;;;2.47;;
38715;SDS011;24833;49.324;8.694;2023-06-14T00:13:37;3.38;;;2.53;;
38715;SDS011;24833;49.324;8.694;2023-06-14T00:16:04;3.90;;;2.42;;
38715;SDS011;24833;49.324;8.694;2023-06-14T00:18:31;4.07;;;2.50;;
38715;SDS011;24833;49.324;8.694;2023-06-14T00:20:59;5.82;;;3.30;;
38715;SDS011;24833;49.324;8.694;2023-06-14T00:23:28;3.35;;;2.40;;
38715;SDS011;24833;49.324;8.694;2023-06-14T00:25:55;2.72;;;2.47;;
38715;SDS011;24833;49.324;8.694;2023-06-14T00:28:22;3.15;;;2.50;;
38715;SDS011;24833;49.324;8.694;2023-06-14T00:30:49;3.75;;;2.75;;
38715;SDS011;24833;49.324;8.694;2023-06-14T00:33:17;3.22;;;2.55;;
38715;SDS011;24833;49.324;8.694;2023-06-14T00:35:44;4.00;;;2.40;;
38715;SDS011;24833;49.324;8.694;2023-06-14T00:38:11;5.60;;;2.58;;
38715;SDS011;24833;49.324;8.694;2023-06-14T00:40:39;3.33;;;2.60;;
38715;SDS011;24833;49.324;8.694;2023-06-14T00:43:06;3.45;;;2.38;;
38715;SDS011;24833;49.324;8.694;2023-06-14T00:45:33;4.13;;;2.53;;
38715;SDS011;24833;49.324;8.694;2023-06-14T00:48:02;2.97;;;2.50;;
38715;SDS011;24833;49.324;8.694;2023-06-14T00:53:00;3.85;;;2.55;;
38715;SDS011;24833;49.324;8.694;2023-06-14T00:55:27;4.45;;;2.78;;
38715;SDS011;24833;49.324;8.694;2023-06-14T00:57:55;6.55;;;2.78;;
38715;SDS011;24833;49.324;8.694;2023-06-14T01:00:22;5.25;;;2.50;;
38715;SDS011;24833;49.324;8.694;2023-06-14T01:03:08;2.92;;;2.15;;
38715;SDS011;24833;49.324;8.694;2023-06-14T01:06:00;3.47;;;2.67;;
38715;SDS011;24833;49.324;8.694;2023-06-14T01:09:25;4.70;;;2.35;;
38715;SDS011;24833;49.324;8.694;2023-06-14T01:15:29;3.97;;;2.70;;
38715;SDS011;24833;49.324;8.694;2023-06-14T01:17:57;3.47;;;2.47;;
38715;SDS011;24833;49.324;8.694;2023-06-14T01:20:31;3.42;;;2.40;;
38715;SDS011;24833;49.324;8.694;2023-06-14T01:23:03;5.28;;;2.42;;
38715;SDS011;24833;49.324;8.694;2023-06-14T01:25:30;4.75;;;2.80;;
38715;SDS011;24833;49.324;8.694;2023-06-14T01:28:05;2.50;;;2.30;;
38715;SDS011;24833;49.324;8.694;2023-06-14T01:30:40;3.15;;;2.63;;
38715;SDS011;24833;49.324;8.694;2023-06-14T01:33:24;3.90;;;2.65;;
38715;SDS011;24833;49.324;8.694;2023-06-14T01:35:57;2.85;;;2.50;;
38715;SDS011;24833;49.324;8.694;2023-06-14T01:38:28;4.47;;;2.90;;
38715;SDS011;24833;49.324;8.694;2023-06-14T01:40:57;4.45;;;2.60;;
38715;SDS011;24833;49.324;8.694;2023-06-14T01:43:26;5.80;;;2.47;;
38715;SDS011;24833;49.324;8.694;2023-06-14T01:45:57;3.10;;;2.80;;
38715;SDS011;24833;49.324;8.694;2023-06-14T01:48:26;4.38;;;2.50;;
38715;SDS011;24833;49.324;8.694;2023-06-14T01:50:53;4.55;;;2.92;;
38715;SDS011;24833;49.324;8.694;2023-06-14T01:53:21;2.97;;;2.65;;
38715;SDS011;24833;49.324;8.694;2023-06-14T01:55:48;3.08;;;2.80;;
38715;SDS011;24833;49.324;8.694;2023-06-14T01:58:15;3.70;;;2.92;;
38715;SDS011;24833;49.324;8.694;2023-06-14T02:00:43;3.63;;;2.83;;
38715;SDS011;24833;49.324;8.694;2023-06-14T02:03:10;4.75;;;2.75;;
38715;SDS011;24833;49.324;8.694;2023-06-14T02:05:39;9.52;;;3.65;;
38715;SDS011;24833;49.324;8.694;2023-06-14T02:08:06;2.97;;;2.72;;
38715;SDS011;24833;49.324;8.694;2023-06-14T02:10:34;2.60;;;2.40;;
38715;SDS011;24833;49.324;8.694;2023-06-14T02:13:02;3.33;;;2.67;;
38715;SDS011;24833;49.324;8.694;2023-06-14T02:15:29;3.55;;;3.15;;
38715;SDS011;24833;49.324;8.694;2023-06-14T02:18:05;4.75;;;3.10;;
38715;SDS011;24833;49.324;8.694;2023-06-14T02:20:33;4.78;;;2.90;;
38715;SDS011;24833;49.324;8.694;2023-06-14T02:23:00;3.20;;;2.90;;
38715;SDS011;24833;49.324;8.694;2023-06-14T02:25:30;4.57;;;2.97;;
38715;SDS011;24833;49.324;8.694;2023-06-14T02:27:57;7.80;;;3.50;;
38715;SDS011;24833;49.324;8.694;2023-06-14T02:30:24;3.15;;;2.85;;
38715;SDS011;24833;49.324;8.694;2023-06-14T02:35:23;3.33;;;2.95;;
38715;SDS011;24833;49.324;8.694;2023-06-14T02:37:55;3.70;;;3.25;;
38715;SDS011;24833;49.324;8.694;2023-06-14T02:40:22;2.90;;;2.65;;
38715;SDS011;24833;49.324;8.694;2023-06-14T02:42:50;3.65;;;2.53;;
38715;SDS011;24833;49.324;8.694;2023-06-14T02:45:17;4.97;;;2.80;;
38715;SDS011;24833;49.324;8.694;2023-06-14T02:47:44;4.13;;;2.78;;
38715;SDS011;24833;49.324;8.694;2023-06-14T02:50:12;4.10;;;3.30;;
38715;SDS011;24833;49.324;8.694;2023-06-14T02:52:40;6.28;;;3.13;;
38715;SDS011;24833;49.324;8.694;2023-06-14T02:55:10;3.30;;;2.90;;
38715;SDS011;24833;49.324;8.694;2023-06-14T02:57:38;3.45;;;2.80;;
38715;SDS011;24833;49.324;8.694;2023-06-14T03:00:07;5.50;;;3.15;;
38715;SDS011;24833;49.324;8.694;2023-06-14T03:02:42;2.55;;;2.33;;
38715;SDS011;24833;49.324;8.694;2023-06-14T03:05:10;4.55;;;3.10;;
38715;SDS011;24833;49.324;8.694;2023-06-14T03:07:37;4.65;;;3.13;;
38715;SDS011;24833;49.324;8.694;2023-06-14T03:10:08;6.53;;;2.85;;
38715;SDS011;24833;49.324;8.694;2023-06-14T03:12:37;4.22;;;3.30;;
38715;SDS011;24833;49.324;8.694;2023-06-14T03:15:06;4.47;;;2.88;;
38715;SDS011;24833;49.324;8.694;2023-06-14T03:17:36;5.05;;;2.70;;
38715;SDS011;24833;49.324;8.694;2023-06-14T03:20:06;5.30;;;2.95;;
38715;SDS011;24833;49.324;8.694;2023-06-14T03:22:34;8.65;;;3.15;;
38715;SDS011;24833;49.324;8.694;2023-06-14T03:25:02;8.50;;;3.33;;
38715;SDS011;24833;49.324;8.694;2023-06-14T03:27:35;4.20;;;2.90;;
38715;SDS011;24833;49.324;8.694;2023-06-14T03:30:04;3.88;;;2.83;;
38715;SDS011;24833;49.324;8.694;2023-06-14T03:32:32;3.63;;;2.70;;
38715;SDS011;24833;49.324;8.694;2023-06-14T03:35:00;3.47;;;2.83;;
38715;SDS011;24833;49.324;8.694;2023-06-14T03:37:27;3.72;;;3.17;;
38715;SDS011;24833;49.324;8.694;2023-06-14T03:39:54;4.90;;;2.60;;
38715;SDS011;24833;49.324;8.694;2023-06-14T03:42:23;3.95;;;2.90;;
38715;SDS011;24833;49.324;8.694;2023-06-14T03:44:50;10.32;;;3.20;;
38715;SDS011;24833;49.324;8.694;2023-06-14T03:47:20;5.63;;;2.90;;
38715;SDS011;24833;49.324;8.694;2023-06-14T03:49:47;2.58;;;2.33;;
38715;SDS011;24833;49.324;8.694;2023-06-14T03:52:14;3.38;;;2.83;;
38715;SDS011;24833;49.324;8.694;2023-06-14T03:54:44;3.13;;;2.72;;
38715;SDS011;24833;49.324;8.694;2023-06-14T03:57:16;4.18;;;2.75;;
38715;SDS011;24833;49.324;8.694;2023-06-14T03:59:44;2.47;;;2.28;;
38715;SDS011;24833;49.324;8.694;2023-06-14T04:02:11;5.70;;;3.00;;
38715;SDS011;24833;49.324;8.694;2023-06-14T04:04:42;3.38;;;2.60;;
38715;SDS011;24833;49.324;8.694;2023-06-14T04:07:12;5.85;;;2.83;;
38715;SDS011;24833;49.324;8.694;2023-06-14T04:09:39;3.90;;;2.90;;
38715;SDS011;24833;49.324;8.694;2023-06-14T04:12:07;4.32;;;2.55;;
38715;SDS011;24833;49.324;8.694;2023-06-14T04:14:35;3.35;;;2.80;;
38715;SDS011;24833;49.324;8.694;2023-06-14T04:17:02;2.90;;;2.60;;
38715;SDS011;24833;49.324;8.694;2023-06-14T04:19:30;2.67;;;2.47;;
38715;SDS011;24833;49.324;8.694;2023-06-14T04:21:57;3.75;;;2.63;;
38715;SDS011;24833;49.324;8.694;2023-06-14T04:24:31;3.63;;;2.50;;
38715;SDS011;24833;49.324;8.694;2023-06-14T04:26:59;3.17;;;2.65;;
38715;SDS011;24833;49.324;8.694;2023-06-14T04:29:29;4.38;;;2.58;;
38715;SDS011;24833;49.324;8.694;2023-06-14T04:32:00;3.85;;;2.88;;
38715;SDS011;24833;49.324;8.694;2023-06-14T04:34:28;4.18;;;2.67;;
38715;SDS011;24833;49.324;8.694;2023-06-14T04:37:01;10.20;;;3.10;;
38715;SDS011;24833;49.324;8.694;2023-06-14T04:39:31;3.65;;;3.15;;
38715;SDS011;24833;49.324;8.694;2023-06-14T04:42:00;3.42;;;2.78;;
38715;SDS011;24833;49.324;8.694;2023-06-14T04:44:30;3.05;;;2.78;;
38715;SDS011;24833;49.324;8.694;2023-06-14T04:47:01;4.60;;;3.00;;
38715;SDS011;24833;49.324;8.694;2023-06-14T04:49:28;4.45;;;2.92;;
38715;SDS011;24833;49.324;8.694;2023-06-14T04:51:57;3.80;;;2.70;;
38715;SDS011;24833;49.324;8.694;2023-06-14T04:54:28;4.50;;;2.97;;
38715;SDS011;24833;49.324;8.694;2023-06-14T04:56:58;5.22;;;3.40;;
38715;SDS011;24833;49.324;8.694;2023-06-14T04:59:26;4.50;;;2.85;;
38715;SDS011;24833;49.324;8.694;2023-06-14T05:01:53;4.43;;;3.10;;
38715;SDS011;24833;49.324;8.694;2023-06-14T05:04:21;2.75;;;2.28;;
38715;SDS011;24833;49.324;8.694;2023-06-14T05:06:49;3.55;;;2.85;;
38715;SDS011;24833;49.324;8.694;2023-06-14T05:09:16;4.45;;;3.38;;
38715;SDS011;24833;49.324;8.694;2023-06-14T05:11:44;3.63;;;3.25;;
38715;SDS011;24833;49.324;8.694;2023-06-14T05:14:11;3.58;;;3.17;;
38715;SDS011;24833;49.324;8.694;2023-06-14T05:16:39;3.42;;;2.70;;
38715;SDS011;24833;49.324;8.694;2023-06-14T05:19:06;4.10;;;3.20;;
38715;SDS011;24833;49.324;8.694;2023-06-14T05:21:34;4.25;;;2.92;;
38715;SDS011;24833;49.324;8.694;2023-06-14T05:24:08;3.22;;;2.92;;
38715;SDS011;24833;49.324;8.694;2023-06-14T05:26:36;7.43;;;3.00;;
38715;SDS011;24833;49.324;8.694;2023-06-14T05:29:03;4.18;;;2.85;;
38715;SDS011;24833;49.324;8.694;2023-06-14T05:31:30;4.63;;;2.25;;
38715;SDS011;24833;49.324;8.694;2023-06-14T05:33:58;3.88;;;2.83;;
38715;SDS011;24833;49.324;8.694;2023-06-14T05:36:25;7.10;;;3.40;;
38715;SDS011;24833;49.324;8.694;2023-06-14T05:38:54;2.90;;;2.55;;
38715;SDS011;24833;49.324;8.694;2023-06-14T05:41:26;3.70;;;2.80;;
38715;SDS011;24833;49.324;8.694;2023-06-14T05:43:53;3.63;;;2.92;;
38715;SDS011;24833;49.324;8.694;2023-06-14T05:46:22;3.97;;;2.80;;
38715;SDS011;24833;49.324;8.694;2023-06-14T05:48:54;4.75;;;2.88;;
38715;SDS011;24833;49.324;8.694;2023-06-14T05:51:22;5.30;;;2.65;;
38715;SDS011;24833;49.324;8.694;2023-06-14T05:53:51;3.70;;;2.57;;
38715;SDS011;24833;49.324;8.694;2023-06-14T05:56:19;3.60;;;2.50;;
38715;SDS011;24833;49.324;8.694;2023-06-14T05:58:46;4.22;;;2.75;;
38715;SDS011;24833;49.324;8.694;2023-06-14T06:01:14;3.53;;;2.80;;
38715;SDS011;24833;49.324;8.694;2023-06-14T06:03:41;5.38;;;3.15;;
38715;SDS011;24833;49.324;8.694;2023-06-14T06:06:12;3.47;;;2.75;;
38715;SDS011;24833;49.324;8.694;2023-06-14T06:08:40;3.63;;;2.33;;
38715;SDS011;24833;49.324;8.694;2023-06-14T06:11:07;3.85;;;2.78;;
38715;SDS011;24833;49.324;8.694;2023-06-14T06:13:35;3.28;;;2.70;;
38715;SDS011;24833;49.324;8.694;2023-06-14T06:16:02;4.40;;;2.90;;
38715;SDS011;24833;49.324;8.694;2023-06-14T06:18:30;6.28;;;2.92;;
38715;SDS011;24833;49.324;8.694;2023-06-14T06:20:57;2.95;;;2.63;;
38715;SDS011;24833;49.324;8.694;2023-06-14T06:23:24;4.93;;;2.70;;
38715;SDS011;24833;49.324;8.694;2023-06-14T06:25:51;3.50;;;2.40;;
38715;SDS011;24833;49.324;8.694;2023-06-14T06:28:18;3.60;;;2.72;;
38715;SDS011;24833;49.324;8.694;2023-06-14T06:30:45;2.80;;;2.50;;
38715;SDS011;24833;49.324;8.694;2023-06-14T06:33:13;6.15;;;2.90;;
38715;SDS011;24833;49.324;8.694;2023-06-14T06:35:40;6.55;;;2.58;;
38715;SDS011;24833;49.324;8.694;2023-06-14T06:38:07;3.15;;;2.63;;
38715;SDS011;24833;49.324;8.694;2023-06-14T06:40:36;4.88;;;2.72;;
38715;SDS011;24833;49.324;8.694;2023-06-14T06:43:03;5.45;;;2.95;;
38715;SDS011;24833;49.324;8.694;2023-06-14T06:45:38;3.78;;;2.97;;
38715;SDS011;24833;49.324;8.694;2023-06-14T06:48:06;4.13;;;3.10;;
38715;SDS011;24833;49.324;8.694;2023-06-14T06:50:33;3.10;;;2.80;;
38715;SDS011;24833;49.324;8.694;2023-06-14T06:53:00;3.15;;;2.15;;
38715;SDS011;24833;49.324;8.694;2023-06-14T06:55:27;4.38;;;2.63;;
38715;SDS011;24833;49.324;8.694;2023-06-14T06:57:54;5.72;;;3.08;;
38715;SDS011;24833;49.324;8.694;2023-06-14T07:00:21;3.55;;;2.50;;
38715;SDS011;24833;49.324;8.694;2023-06-14T07:02:48;7.00;;;3.08;;
38715;SDS011;24833;49.324;8.694;2023-06-14T07:05:15;3.97;;;2.50;;
38715;SDS011;24833;49.324;8.694;2023-06-14T07:07:43;4.30;;;2.17;;
38715;SDS011;24833;49.324;8.694;2023-06-14T07:10:10;2.35;;;2.15;;
38715;SDS011;24833;49.324;8.694;2023-06-14T07:12:37;4.00;;;2.58;;
38715;SDS011;24833;49.324;8.694;2023-06-14T07:15:06;3.38;;;2.55;;
38715;SDS011;24833;49.324;8.694;2023-06-14T07:17:35;4.03;;;2.65;;
38715;SDS011;24833;49.324;8.694;2023-06-14T07:20:03;4.70;;;2.10;;
38715;SDS011;24833;49.324;8.694;2023-06-14T07:22:34;3.45;;;2.58;;
38715;SDS011;24833;49.324;8.694;2023-06-14T07:25:01;3.90;;;2.72;;
38715;SDS011;24833;49.324;8.694;2023-06-14T07:27:29;2.58;;;2.38;;
38715;SDS011;24833;49.324;8.694;2023-06-14T07:29:56;3.53;;;2.22;;
38715;SDS011;24833;49.324;8.694;2023-06-14T07:32:23;2.60;;;2.40;;
38715;SDS011;24833;49.324;8.694;2023-06-14T07:34:50;3.20;;;2.75;;
38715;SDS011;24833;49.324;8.694;2023-06-14T07:37:17;6.45;;;2.75;;
38715;SDS011;24833;49.324;8.694;2023-06-14T07:39:44;4.35;;;2.40;;
38715;SDS011;24833;49.324;8.694;2023-06-14T07:42:11;5.28;;;2.63;;
38715;SDS011;24833;49.324;8.694;2023-06-14T07:44:38;4.70;;;2.58;;
38715;SDS011;24833;49.324;8.694;2023-06-14T07:47:05;4.00;;;2.65;;
38715;SDS011;24833;49.324;8.694;2023-06-14T07:49:33;2.40;;;2.20;;
38715;SDS011;24833;49.324;8.694;2023-06-14T07:52:00;3.50;;;3.03;;
38715;SDS011;24833;49.324;8.694;2023-06-14T07:54:27;5.20;;;2.70;;
38715;SDS011;24833;49.324;8.694;2023-06-14T07:56:54;2.58;;;2.38;;
38715;SDS011;24833;49.324;8.694;2023-06-14T07:59:22;2.63;;;2.42;;
38715;SDS011;24833;49.324;8.694;2023-06-14T08:01:49;2.80;;;2.50;;
38715;SDS011;24833;49.324;8.694;2023-06-14T08:04:16;3.72;;;2.47;;
38715;SDS011;24833;49.324;8.694;2023-06-14T08:06:43;3.90;;;2.95;;
38715;SDS011;24833;49.324;8.694;2023-06-14T08:09:12;2.50;;;2.13;;
38715;SDS011;24833;49.324;8.694;2023-06-14T08:11:39;3.75;;;2.70;;
38715;SDS011;24833;49.324;8.694;2023-06-14T08:14:06;4.25;;;2.55;;
38715;SDS011;24833;49.324;8.694;2023-06-14T08:16:34;2.40;;;2.17;;
38715;SDS011;24833;49.324;8.694;2023-06-14T08:19:02;5.00;;;2.58;;
38715;SDS011;24833;49.324;8.694;2023-06-14T08:21:29;2.35;;;2.15;;
38715;SDS011;24833;49.324;8.694;2023-06-14T08:23:57;2.85;;;2.28;;
38715;SDS011;24833;49.324;8.694;2023-06-14T08:26:24;3.35;;;2.80;;
38715;SDS011;24833;49.324;8.694;2023-06-14T08:28:55;3.03;;;2.30;;
38715;SDS011;24833;49.324;8.694;2023-06-14T08:31:23;3.45;;;2.50;;
38715;SDS011;24833;49.324;8.694;2023-06-14T08:33:51;5.47;;;2.75;;
38715;SDS011;24833;49.324;8.694;2023-06-14T08:36:18;3.08;;;2.17;;
38715;SDS011;24833;49.324;8.694;2023-06-14T08:38:45;2.83;;;2.33;;
38715;SDS011;24833;49.324;8.694;2023-06-14T08:41:13;4.20;;;2.55;;
38715;SDS011;24833;49.324;8.694;2023-06-14T08:43:48;5.68;;;2.60;;
38715;SDS011;24833;49.324;8.694;2023-06-14T08:46:17;3.63;;;2.50;;
38715;SDS011;24833;49.324;8.694;2023-06-14T08:48:49;3.35;;;2.13;;
38715;SDS011;24833;49.324;8.694;2023-06-14T08:51:20;4.47;;;2.65;;
38715;SDS011;24833;49.324;8.694;2023-06-14T08:53:51;3.28;;;2.25;;
38715;SDS011;24833;49.324;8.694;2023-06-14T08:56:30;5.22;;;2.75;;
38715;SDS011;24833;49.324;8.694;2023-06-14T08:58:58;5.80;;;2.70;;
38715;SDS011;24833;49.324;8.694;2023-06-14T09:01:36;4.18;;;2.78;;
38715;SDS011;24833;49.324;8.694;2023-06-14T09:04:04;4.45;;;2.95;;
38715;SDS011;24833;49.324;8.694;2023-06-14T09:06:33;5.40;;;2.70;;
38715;SDS011;24833;49.324;8.694;2023-06-14T09:09:00;7.22;;;2.47;;
38715;SDS011;24833;49.324;8.694;2023-06-14T09:11:30;4.65;;;2.40;;
38715;SDS011;24833;49.324;8.694;2023-06-14T09:13:57;4.00;;;2.13;;
38715;SDS011;24833;49.324;8.694;2023-06-14T09:16:25;3.70;;;2.50;;
38715;SDS011;24833;49.324;8.694;2023-06-14T09:18:53;3.22;;;2.38;;
38715;SDS011;24833;49.324;8.694;2023-06-14T09:21:21;5.05;;;2.42;;
38715;SDS011;24833;49.324;8.694;2023-06-14T09:23:51;4.57;;;2.67;;
38715;SDS011;24833;49.324;8.694;2023-06-14T09:26:20;10.77;;;3.00;;
38715;SDS011;24833;49.324;8.694;2023-06-14T09:28:49;3.25;;;2.22;;
38715;SDS011;24833;49.324;8.694;2023-06-14T09:31:17;3.97;;;2.20;;
38715;SDS011;24833;49.324;8.694;2023-06-14T09:33:47;4.37;;;2.27;;
38715;SDS011;24833;49.324;8.694;2023-06-14T09:36:18;4.83;;;2.63;;
38715;SDS011;24833;49.324;8.694;2023-06-14T09:38:56;4.30;;;2.40;;
38715;SDS011;24833;49.324;8.694;2023-06-14T09:41:30;4.50;;;2.10;;
38715;SDS011;24833;49.324;8.694;2023-06-14T09:44:09;4.20;;;2.78;;
38715;SDS011;24833;49.324;8.694;2023-06-14T09:46:46;3.40;;;2.40;;
38715;SDS011;24833;49.324;8.694;2023-06-14T09:49:14;5.68;;;2.25;;
38715;SDS011;24833;49.324;8.694;2023-06-14T09:51:42;2.72;;;2.20;;
38715;SDS011;24833;49.324;8.694;2023-06-14T09:54:15;2.72;;;2.40;;
38715;SDS011;24833;49.324;8.694;2023-06-14T09:56:47;2.92;;;2.30;;
38715;SDS011;24833;49.324;8.694;2023-06-14T09:59:16;7.10;;;2.42;;
38715;SDS011;24833;49.324;8.694;2023-06-14T10:01:56;2.08;;;1.88;;
38715;SDS011;24833;49.324;8.694;2023-06-14T10:04:26;2.90;;;1.98;;
38715;SDS011;24833;49.324;8.694;2023-06-14T10:06:57;3.03;;;2.25;;
38715;SDS011;24833;49.324;8.694;2023-06-14T10:09:25;2.40;;;2.10;;
38715;SDS011;24833;49.324;8.694;2023-06-14T10:11:52;4.20;;;1.92;;
38715;SDS011;24833;49.324;8.694;2023-06-14T10:14:19;2.63;;;2.00;;
38715;SDS011;24833;49.324;8.694;2023-06-14T10:17:04;3.45;;;2.05;;
38715;SDS011;24833;49.324;8.694;2023-06-14T10:19:42;2.42;;;2.13;;
38715;SDS011;24833;49.324;8.694;2023-06-14T10:22:30;4.70;;;2.17;;
38715;SDS011;24833;49.324;8.694;2023-06-14T10:25:03;3.53;;;2.00;;
38715;SDS011;24833;49.324;8.694;2023-06-14T10:27:38;3.17;;;1.88;;
38715;SDS011;24833;49.324;8.694;2023-06-14T10:30:07;5.35;;;2.40;;
38715;SDS011;24833;49.324;8.694;2023-06-14T10:32:34;4.13;;;2.37;;
38715;SDS011;24833;49.324;8.694;2023-06-14T10:35:22;2.25;;;1.90;;
38715;SDS011;24833;49.324;8.694;2023-06-14T10:37:49;2.60;;;2.22;;
38715;SDS011;24833;49.324;8.694;2023-06-14T10:40:31;4.60;;;2.22;;
38715;SDS011;24833;49.324;8.694;2023-06-14T10:42:59;2.70;;;2.10;;
38715;SDS011;24833;49.324;8.694;2023-06-14T10:45:26;2.25;;;2.05;;
38715;SDS011;24833;49.324;8.694;2023-06-14T10:47:57;2.90;;;1.80;;
38715;SDS011;24833;49.324;8.694;2023-06-14T10:50:27;2.33;;;1.88;;
38715;SDS011;24833;49.324;8.694;2023-06-14T10:52:56;5.40;;;2.00;;
38715;SDS011;24833;49.324;8.694;2023-06-14T10:55:23;3.30;;;1.90;;
38715;SDS011;24833;49.324;8.694;2023-06-14T10:57:52;5.88;;;2.10;;
38715;SDS011;24833;49.324;8.694;2023-06-14T11:00:25;3.15;;;2.20;;
38715;SDS011;24833;49.324;8.694;2023-06-14T11:11:23;2.55;;;2.35;;
38715;SDS011;24833;49.324;8.694;2023-06-14T11:13:57;2.75;;;1.55;;
38715;SDS011;24833;49.324;8.694;2023-06-14T11:18:55;5.60;;;2.20;;
38715;SDS011;24833;49.324;8.694;2023-06-14T11:21:23;1.77;;;1.67;;
38715;SDS011;24833;49.324;8.694;2023-06-14T11:23:51;2.53;;;2.10;;
38715;SDS011;24833;49.324;8.694;2023-06-14T11:26:24;2.65;;;1.77;;
38715;SDS011;24833;49.324;8.694;2023-06-14T11:28:56;3.28;;;2.17;;
38715;SDS011;24833;49.324;8.694;2023-06-14T11:31:25;3.17;;;2.13;;
38715;SDS011;24833;49.324;8.694;2023-06-14T11:33:55;2.30;;;2.00;;
38715;SDS011;24833;49.324;8.694;2023-06-14T11:36:27;2.40;;;1.90;;
38715;SDS011;24833;49.324;8.694;2023-06-14T11:39:00;2.03;;;1.67;;
38715;SDS011;24833;49.324;8.694;2023-06-14T11:44:01;3.67;;;1.90;;
38715;SDS011;24833;49.324;8.694;2023-06-14T11:46:29;3.70;;;2.35;;
38715;SDS011;24833;49.324;8.694;2023-06-14T11:48:56;3.03;;;2.17;;
38715;SDS011;24833;49.324;8.694;2023-06-14T11:51:24;2.13;;;2.00;;
38715;SDS011;24833;49.324;8.694;2023-06-14T11:53:51;3.25;;;2.25;;
38715;SDS011;24833;49.324;8.694;2023-06-14T11:56:19;2.30;;;2.10;;
38715;SDS011;24833;49.324;8.694;2023-06-14T11:58:46;4.10;;;2.10;;
38715;SDS011;24833;49.324;8.694;2023-06-14T12:01:17;2.25;;;1.80;;
38715;SDS011;24833;49.324;8.694;2023-06-14T12:03:47;3.72;;;1.77;;
38715;SDS011;24833;49.324;8.694;2023-06-14T12:06:24;2.38;;;2.03;;
38715;SDS011;24833;49.324;8.694;2023-06-14T12:08:59;2.90;;;2.10;;
38715;SDS011;24833;49.324;8.694;2023-06-14T12:11:32;2.20;;;1.88;;
38715;SDS011;24833;49.324;8.694;2023-06-14T12:16:34;1.93;;;1.73;;
38715;SDS011;24833;49.324;8.694;2023-06-14T12:19:13;5.00;;;2.30;;
38715;SDS011;24833;49.324;8.694;2023-06-14T12:21:43;3.92;;;2.22;;
38715;SDS011;24833;49.324;8.694;2023-06-14T12:24:15;2.95;;;2.10;;
38715;SDS011;24833;49.324;8.694;2023-06-14T12:26:42;3.45;;;2.10;;
38715;SDS011;24833;49.324;8.694;2023-06-14T12:29:10;4.07;;;2.20;;
38715;SDS011;24833;49.324;8.694;2023-06-14T12:31:39;4.97;;;2.00;;
38715;SDS011;24833;49.324;8.694;2023-06-14T12:34:07;2.08;;;1.80;;
38715;SDS011;24833;49.324;8.694;2023-06-14T12:36:34;3.03;;;1.92;;
38715;SDS011;24833;49.324;8.694;2023-06-14T12:39:08;2.55;;;2.00;;
38715;SDS011;24833;49.324;8.694;2023-06-14T12:41:35;4.05;;;1.88;;
38715;SDS011;24833;49.324;8.694;2023-06-14T12:44:08;2.58;;;1.95;;
38715;SDS011;24833;49.324;8.694;2023-06-14T12:46:35;3.90;;;1.92;;
38715;SDS011;24833;49.324;8.694;2023-06-14T12:49:03;3.10;;;2.22;;
38715;SDS011;24833;49.324;8.694;2023-06-14T12:51:30;2.88;;;1.98;;
38715;SDS011;24833;49.324;8.694;2023-06-14T12:53:57;2.30;;;1.90;;
38715;SDS011;24833;49.324;8.694;2023-06-14T12:56:24;2.20;;;2.00;;
38715;SDS011;24833;49.324;8.694;2023-06-14T12:58:52;2.15;;;1.90;;
38715;SDS011;24833;49.324;8.694;2023-06-14T13:01:19;3.38;;;2.13;;
38715;SDS011;24833;49.324;8.694;2023-06-14T13:03:47;1.95;;;1.75;;
38715;SDS011;24833;49.324;8.694;2023-06-14T13:06:14;3.08;;;2.13;;
38715;SDS011;24833;49.324;8.694;2023-06-14T13:08:41;3.00;;;2.15;;
38715;SDS011;24833;49.324;8.694;2023-06-14T13:11:08;6.05;;;2.22;;
38715;SDS011;24833;49.324;8.694;2023-06-14T13:13:35;3.30;;;2.03;;
38715;SDS011;24833;49.324;8.694;2023-06-14T13:16:03;2.33;;;1.95;;
38715;SDS011;24833;49.324;8.694;2023-06-14T13:18:30;2.92;;;2.03;;
38715;SDS011;24833;49.324;8.694;2023-06-14T13:20:57;2.38;;;1.88;;
38715;SDS011;24833;49.324;8.694;2023-06-14T13:23:24;3.42;;;1.95;;
38715;SDS011;24833;49.324;8.694;2023-06-14T13:25:51;2.55;;;2.03;;
38715;SDS011;24833;49.324;8.694;2023-06-14T13:28:18;4.35;;;1.88;;
38715;SDS011;24833;49.324;8.694;2023-06-14T13:30:47;7.35;;;2.35;;
38715;SDS011;24833;49.324;8.694;2023-06-14T13:33:14;3.25;;;2.58;;
38715;SDS011;24833;49.324;8.694;2023-06-14T13:35:41;2.15;;;1.83;;
38715;SDS011;24833;49.324;8.694;2023-06-14T13:38:09;2.85;;;2.25;;
38715;SDS011;24833;49.324;8.694;2023-06-14T13:40:37;4.90;;;2.08;;
38715;SDS011;24833;49.324;8.694;2023-06-14T13:43:05;2.72;;;2.17;;
38715;SDS011;24833;49.324;8.694;2023-06-14T13:45:32;2.22;;;1.80;;
38715;SDS011;24833;49.324;8.694;2023-06-14T13:47:59;4.13;;;3.30;;
38715;SDS011;24833;49.324;8.694;2023-06-14T13:50:26;7.35;;;3.92;;
38715;SDS011;24833;49.324;8.694;2023-06-14T13:52:54;3.50;;;2.55;;
38715;SDS011;24833;49.324;8.694;2023-06-14T13:55:21;2.63;;;2.40;;
38715;SDS011;24833;49.324;8.694;2023-06-14T13:57:48;2.58;;;2.30;;
38715;SDS011;24833;49.324;8.694;2023-06-14T14:00:15;2.13;;;1.70;;
38715;SDS011;24833;49.324;8.694;2023-06-14T14:02:46;2.75;;;2.42;;
38715;SDS011;24833;49.324;8.694;2023-06-14T14:05:13;1.92;;;1.80;;
38715;SDS011;24833;49.324;8.694;2023-06-14T14:07:40;2.80;;;2.53;;
38715;SDS011;24833;49.324;8.694;2023-06-14T14:10:07;2.70;;;2.15;;
38715;SDS011;24833;49.324;8.694;2023-06-14T14:12:34;2.15;;;2.00;;
38715;SDS011;24833;49.324;8.694;2023-06-14T14:15:02;2.97;;;2.25;;
38715;SDS011;24833;49.324;8.694;2023-06-14T14:17:30;2.55;;;2.22;;
38715;SDS011;24833;49.324;8.694;2023-06-14T14:19:57;2.05;;;1.80;;
38715;SDS011;24833;49.324;8.694;2023-06-14T14:22:24;2.28;;;1.98;;
38715;SDS011;24833;49.324;8.694;2023-06-14T14:24:51;2.45;;;1.88;;
38715;SDS011;24833;49.324;8.694;2023-06-14T14:27:18;2.83;;;2.15;;
38715;SDS011;24833;49.324;8.694;2023-06-14T14:29:45;3.15;;;2.10;;
38715;SDS011;24833;49.324;8.694;2023-06-14T14:32:12;2.88;;;2.20;;
38715;SDS011;24833;49.324;8.694;2023-06-14T14:34:40;1.98;;;1.80;;
38715;SDS011;24833;49.324;8.694;2023-06-14T14:37:07;2.35;;;1.98;;
38715;SDS011;24833;49.324;8.694;2023-06-14T14:39:36;3.53;;;1.90;;
38715;SDS011;24833;49.324;8.694;2023-06-14T14:42:03;4.07;;;2.03;;
38715;SDS011;24833;49.324;8.694;2023-06-14T14:44:33;2.10;;;1.90;;
38715;SDS011;24833;49.324;8.694;2023-06-14T14:47:00;2.17;;;1.98;;
38715;SDS011;24833;49.324;8.694;2023-06-14T14:49:28;5.88;;;1.90;;
38715;SDS011;24833;49.324;8.694;2023-06-14T14:51:55;2.35;;;2.08;;
38715;SDS011;24833;49.324;8.694;2023-06-14T14:54:30;3.08;;;2.30;;
38715;SDS011;24833;49.324;8.694;2023-06-14T14:56:57;2.25;;;1.60;;
38715;SDS011;24833;49.324;8.694;2023-06-14T14:59:24;3.30;;;2.15;;
38715;SDS011;24833;49.324;8.694;2023-06-14T15:01:52;3.30;;;2.40;;
38715;SDS011;24833;49.324;8.694;2023-06-14T15:04:19;2.22;;;2.00;;
38715;SDS011;24833;49.324;8.694;2023-06-14T15:06:46;2.35;;;2.15;;
38715;SDS011;24833;49.324;8.694;2023-06-14T15:09:13;2.33;;;1.60;;
38715;SDS011;24833;49.324;8.694;2023-06-14T15:11:41;2.00;;;1.80;;
38715;SDS011;24833;49.324;8.694;2023-06-14T15:14:10;1.73;;;1.63;;
38715;SDS011;24833;49.324;8.694;2023-06-14T15:16:37;2.28;;;2.00;;
38715;SDS011;24833;49.324;8.694;2023-06-14T15:19:05;1.95;;;1.67;;
38715;SDS011;24833;49.324;8.694;2023-06-14T15:21:32;2.33;;;1.85;;
38715;SDS011;24833;49.324;8.694;2023-06-14T15:24:02;2.38;;;1.88;;